createdAt,value
2023-05-25T00:01:02.516Z,13.37
2023-05-25T00:06:05.778Z,13.31
2023-05-25T00:11:07.429Z,13.27
2023-05-25T00:16:08.965Z,13.20
2023-05-25T00:21:10.863Z,13.14
2023-05-25T00:26:12.473Z,13.07
2023-05-25T00:31:14.135Z,13.01
2023-05-25T00:36:15.867Z,12.96
2023-05-25T00:41:18.653Z,12.91
2023-05-25T00:46:20.381Z,12.90
2023-05-25T00:51:22.591Z,12.87
2023-05-25T00:56:29.196Z,12.88
2023-05-25T01:01:40.080Z,12.88
2023-05-25T01:06:47.305Z,12.88
2023-05-25T01:11:51.428Z,12.91
2023-05-25T01:16:55.252Z,12.93
2023-05-25T01:22:32.713Z,12.92
2023-05-25T01:27:44.006Z,12.94
2023-05-25T01:32:46.478Z,12.95
2023-05-25T01:37:49.937Z,12.94
2023-05-25T01:42:51.489Z,12.96
2023-05-25T01:48:22.331Z,12.94
2023-05-25T01:53:30.375Z,12.96
2023-05-25T01:58:38.913Z,12.95
2023-05-25T02:03:42.241Z,12.95
2023-05-25T02:08:46.659Z,12.97
2023-05-25T02:13:48.270Z,12.97
2023-05-25T02:18:51.023Z,12.97
2023-05-25T02:23:54.117Z,12.97
2023-05-25T02:28:55.599Z,12.99
2023-05-25T02:33:57.989Z,13.01
2023-05-25T02:38:59.593Z,13.03
2023-05-25T02:44:01.127Z,13.06
2023-05-25T02:49:02.800Z,13.02
2023-05-25T02:54:04.468Z,13.02
2023-05-25T02:59:06.028Z,13.07
2023-05-25T03:04:07.874Z,13.10
2023-05-25T03:09:10.014Z,13.11
2023-05-25T03:14:11.646Z,13.10
2023-05-25T03:19:13.532Z,13.10
2023-05-25T03:24:15.108Z,13.10
2023-05-25T03:29:16.712Z,13.14
2023-05-25T03:34:18.326Z,13.16
2023-05-25T03:39:22.165Z,13.19
2023-05-25T03:44:24.429Z,13.21
2023-05-25T03:49:28.063Z,13.20
2023-05-25T03:54:29.657Z,13.20
2023-05-25T03:59:31.470Z,13.17
2023-05-25T04:04:33.096Z,13.15
2023-05-25T04:09:34.734Z,13.16
2023-05-25T04:14:36.356Z,13.11
2023-05-25T04:19:37.937Z,13.12
2023-05-25T04:24:39.459Z,13.18
2023-05-25T04:29:41.814Z,13.29
2023-05-25T04:34:46.825Z,13.41
2023-05-25T04:39:48.524Z,13.43
2023-05-25T04:44:55.870Z,13.41
2023-05-25T04:49:57.621Z,13.46
2023-05-25T04:54:59.312Z,13.51
2023-05-25T05:00:01.065Z,13.56
2023-05-25T05:05:02.717Z,13.63
2023-05-25T05:10:05.306Z,13.72
2023-05-25T05:15:07.844Z,13.80
2023-05-25T05:20:09.729Z,13.87
2023-05-25T05:25:11.600Z,13.88
2023-05-25T05:30:13.437Z,13.93
2023-05-25T05:35:17.381Z,14.06
2023-05-25T05:40:19.190Z,14.16
2023-05-25T05:45:21.533Z,14.22
2023-05-25T05:50:24.660Z,14.23
2023-05-25T05:55:26.524Z,14.27
2023-05-25T06:00:28.964Z,14.32
2023-05-25T06:05:30.506Z,14.35
2023-05-25T06:10:32.095Z,14.41
2023-05-25T06:15:33.990Z,14.50
2023-05-25T06:20:35.984Z,14.62
2023-05-25T06:25:37.547Z,14.68
2023-05-25T06:30:39.569Z,14.77
2023-05-25T06:35:43.557Z,14.85
2023-05-25T06:40:45.426Z,14.90
2023-05-25T06:45:48.389Z,14.95
2023-05-25T06:50:50.124Z,14.96
2023-05-25T06:55:51.886Z,14.92
2023-05-25T07:00:53.852Z,14.94
2023-05-25T07:05:55.510Z,15.05
2023-05-25T07:10:57.091Z,15.20
2023-05-25T07:15:58.824Z,15.25
2023-05-25T07:21:00.460Z,15.37
2023-05-25T07:26:05.021Z,15.38
2023-05-25T07:31:08.875Z,15.51
2023-05-25T07:36:10.641Z,15.51
2023-05-25T07:41:13.477Z,15.53
2023-05-25T07:46:17.265Z,15.82
2023-05-25T07:51:18.928Z,15.98
2023-05-25T07:56:20.675Z,16.28
2023-05-25T08:01:24.922Z,16.49
2023-05-25T08:06:27.938Z,16.57
2023-05-25T08:11:29.586Z,16.78
2023-05-25T08:16:31.186Z,17.07
2023-05-25T08:21:35.202Z,17.16
2023-05-25T08:26:53.223Z,17.47
2023-05-25T08:31:56.002Z,17.97
2023-05-25T08:36:58.019Z,18.21
2023-05-25T08:42:00.178Z,18.24
2023-05-25T08:47:07.313Z,18.46
2023-05-25T08:52:15.032Z,18.86
2023-05-25T08:57:26.205Z,19.45
2023-05-25T09:02:56.749Z,19.61
2023-05-25T09:07:59.110Z,19.79
2023-05-25T09:13:12.828Z,20.00
2023-05-25T09:18:21.889Z,20.14
2023-05-25T09:23:23.898Z,20.23
2023-05-25T09:28:27.589Z,20.21
2023-05-25T09:33:30.161Z,19.96
2023-05-25T09:38:33.984Z,19.65
2023-05-25T09:43:44.645Z,19.76
2023-05-25T09:48:53.499Z,19.78
2023-05-25T09:53:55.160Z,19.82
2023-05-25T09:58:57.181Z,19.94
2023-05-25T10:04:04.606Z,20.07
2023-05-25T10:09:11.820Z,19.85
2023-05-25T10:14:20.088Z,19.66
2023-05-25T10:19:45.706Z,19.79
2023-05-25T10:24:56.364Z,19.97
2023-05-25T10:30:02.023Z,20.16
2023-05-25T10:35:07.335Z,20.36
2023-05-25T10:40:10.146Z,20.42
2023-05-25T10:45:13.182Z,20.47
2023-05-25T10:50:29.641Z,20.55
2023-05-25T10:55:48.532Z,20.65
2023-05-25T11:01:06.705Z,21.00
2023-05-25T11:06:10.614Z,21.01
2023-05-25T11:11:12.196Z,21.29
2023-05-25T11:16:34.576Z,21.55
2023-05-25T11:21:36.222Z,21.85
2023-05-25T11:26:37.986Z,21.95
2023-05-25T11:31:43.390Z,22.14
2023-05-25T11:36:45.732Z,22.09
2023-05-25T11:41:56.098Z,22.01
2023-05-25T11:47:02.190Z,22.34
2023-05-25T11:52:09.136Z,22.44
2023-05-25T11:57:18.566Z,22.28
2023-05-25T12:02:21.436Z,22.38
2023-05-25T12:07:23.975Z,22.57
2023-05-25T12:12:25.704Z,22.90
2023-05-25T12:17:27.313Z,23.03
2023-05-25T12:22:29.078Z,23.27
2023-05-25T12:27:31.042Z,23.38
2023-05-25T12:32:32.648Z,23.36
2023-05-25T12:37:34.678Z,23.54
2023-05-25T12:42:36.509Z,23.37
2023-05-25T12:47:38.183Z,23.27
2023-05-25T12:52:44.414Z,23.41
2023-05-25T12:57:47.277Z,23.38
2023-05-25T13:02:50.536Z,23.38
2023-05-25T13:07:54.317Z,23.17
2023-05-25T13:12:58.422Z,23.13
2023-05-25T13:18:00.263Z,23.22
2023-05-25T13:23:03.390Z,23.29
2023-05-25T13:28:06.389Z,23.25
2023-05-25T13:33:08.641Z,22.88
2023-05-25T13:38:10.785Z,22.73
2023-05-25T13:43:12.280Z,22.69
2023-05-25T13:48:13.979Z,22.91
2023-05-25T13:53:15.842Z,23.22
2023-05-25T13:58:17.395Z,23.47
2023-05-25T14:03:19.025Z,23.46
2023-05-25T14:08:20.765Z,23.18
2023-05-25T14:13:22.475Z,22.96
2023-05-25T14:18:24.387Z,22.89
2023-05-25T14:23:25.898Z,22.61
2023-05-25T14:28:27.934Z,22.50
2023-05-25T14:33:29.875Z,22.52
2023-05-25T14:38:32.646Z,22.61
2023-05-25T14:43:34.981Z,23.15
2023-05-25T14:48:36.686Z,23.37
2023-05-25T14:53:38.397Z,23.67
2023-05-25T14:58:39.951Z,24.29
2023-05-25T15:03:41.554Z,24.77
2023-05-25T15:08:43.241Z,25.14
2023-05-25T15:13:45.518Z,25.42
2023-05-25T15:18:47.048Z,25.56
2023-05-25T15:23:48.638Z,25.79
2023-05-25T15:28:50.244Z,25.89
2023-05-25T15:33:58.293Z,25.54
2023-05-25T15:39:00.755Z,25.60
2023-05-25T15:44:02.682Z,25.77
2023-05-25T15:49:10.814Z,25.93
2023-05-25T15:54:14.558Z,26.12
2023-05-25T15:59:16.567Z,26.14
2023-05-25T16:04:19.250Z,26.11
2023-05-25T16:09:20.993Z,25.73
2023-05-25T16:14:22.558Z,25.37
2023-05-25T16:19:29.836Z,25.00
2023-05-25T16:24:31.420Z,25.10
2023-05-25T16:29:33.296Z,24.88
2023-05-25T16:34:34.962Z,24.60
2023-05-25T16:39:36.531Z,24.64
2023-05-25T16:44:38.105Z,24.54
2023-05-25T16:49:39.666Z,24.50
2023-05-25T16:54:41.293Z,24.37
2023-05-25T16:59:42.878Z,24.28
2023-05-25T17:04:44.448Z,24.17
2023-05-25T17:09:46.004Z,24.02
2023-05-25T17:14:47.593Z,23.81
2023-05-25T17:19:49.157Z,23.60
2023-05-25T17:24:50.937Z,23.34
2023-05-25T17:29:53.026Z,23.12
2023-05-25T17:34:54.449Z,22.92
2023-05-25T17:39:55.986Z,22.66
2023-05-25T17:44:57.554Z,22.46
2023-05-25T17:49:59.086Z,22.27
2023-05-25T17:55:00.813Z,22.10
2023-05-25T18:00:02.631Z,21.90
2023-05-25T18:05:04.389Z,21.69
2023-05-25T18:10:06.694Z,21.51
2023-05-25T18:15:08.716Z,21.34
2023-05-25T18:20:11.514Z,21.12
2023-05-25T18:25:13.198Z,20.94
2023-05-25T18:30:15.420Z,20.77
2023-05-25T18:35:17.326Z,20.58
2023-05-25T18:40:18.900Z,20.44
2023-05-25T18:45:20.464Z,20.30
2023-05-25T18:50:22.117Z,20.15
2023-05-25T18:55:23.712Z,20.01
2023-05-25T19:00:31.561Z,19.87
2023-05-25T19:05:33.095Z,19.69
2023-05-25T19:10:34.644Z,19.52
2023-05-25T19:15:36.302Z,19.35
2023-05-25T19:20:37.921Z,19.22
2023-05-25T19:25:39.608Z,19.11
2023-05-25T19:30:42.005Z,19.02
2023-05-25T19:35:43.765Z,18.93
2023-05-25T19:40:45.857Z,18.84
2023-05-25T19:45:47.795Z,18.75
2023-05-25T19:50:49.563Z,18.67
2023-05-25T19:55:51.667Z,18.62
2023-05-25T20:00:53.828Z,18.56
2023-05-25T20:05:56.358Z,18.51
2023-05-25T20:10:57.961Z,18.48
2023-05-25T20:15:59.592Z,18.45
2023-05-25T20:21:01.243Z,18.39
2023-05-25T20:26:02.805Z,18.32
2023-05-25T20:31:05.817Z,18.23
2023-05-25T20:36:07.464Z,18.12
2023-05-25T20:41:09.016Z,18.03
2023-05-25T20:46:11.295Z,18.01
2023-05-25T20:51:14.142Z,17.93
2023-05-25T20:56:15.926Z,17.92
2023-05-25T21:01:17.601Z,17.93
2023-05-25T21:06:19.566Z,17.87
2023-05-25T21:11:22.076Z,17.77
2023-05-25T21:16:23.663Z,17.64
2023-05-25T21:21:25.732Z,17.60
2023-05-25T21:26:28.324Z,17.62
2023-05-25T21:31:29.919Z,17.61
2023-05-25T21:36:32.478Z,17.58
2023-05-25T21:41:34.023Z,17.53
2023-05-25T21:46:36.557Z,17.50
2023-05-25T21:51:38.151Z,17.43
2023-05-25T21:56:39.676Z,17.32
2023-05-25T22:01:41.529Z,17.19
2023-05-25T22:06:43.197Z,17.06
2023-05-25T22:11:44.718Z,16.91
2023-05-25T22:16:46.390Z,16.73
2023-05-25T22:21:48.055Z,16.57
2023-05-25T22:26:49.616Z,16.40
2023-05-25T22:31:51.176Z,16.30
2023-05-25T22:36:52.763Z,16.25
2023-05-25T22:41:54.333Z,16.26
2023-05-25T22:46:55.992Z,16.28
2023-05-25T22:51:57.680Z,16.28
2023-05-25T22:56:59.370Z,16.29
2023-05-25T23:02:00.947Z,16.26
2023-05-25T23:07:02.698Z,16.25
2023-05-25T23:12:04.555Z,16.20
2023-05-25T23:17:06.093Z,16.14
2023-05-25T23:22:07.634Z,16.08
2023-05-25T23:27:09.163Z,15.97
2023-05-25T23:32:10.835Z,15.89
2023-05-25T23:37:12.368Z,15.85
2023-05-25T23:42:15.518Z,15.80
2023-05-25T23:47:17.116Z,15.75
2023-05-25T23:52:18.717Z,15.69
2023-05-25T23:57:20.340Z,15.64
